Time;durP1;ratioP1;P1;durP2;ratioP2;P2;SDS_P1;SDS_P2;PMS_P1;PMS_P2;Temp;Humidity;BMP_temperature;BMP_pressure;BME280_temperature;BME280_humidity;BME280_pressure;Samples;Min_cycle;Max_cycle;Signal;HPM_P1;HPM_P2
2024/02/17 00:01:22;;;;;;;;;;;;;;;20.88;26.76;98783.25;4915067;29;1982;-81
2024/02/17 00:03:47;;;;;;;;;;;;;;;20.93;26.82;98791.28;4929254;29;995;-81
2024/02/17 00:06:13;;;;;;;;;;;;;;;20.98;26.71;98788.00;4943663;29;903;-81
2024/02/17 00:08:39;;;;;;;;;;;;;;;21.36;26.24;98791.63;4966141;29;904;-81
2024/02/17 00:11:04;;;;;;;;;;;;;;;21.08;26.31;98792.72;4968491;29;858;-81
2024/02/17 00:13:30;;;;;;;;;;;;;;;20.60;26.99;98796.50;4912122;29;1574;-81
2024/02/17 00:15:56;;;;;;;;;;;;;;;20.74;27.14;98795.56;4930718;29;900;-80
2024/02/17 00:18:26;;;;;;;;;;;;;;;20.88;26.79;98794.56;4928689;29;1049;-81
2024/02/17 00:20:52;;;;;;;;;;;;;;;21.12;26.46;98801.97;4931134;29;908;-79
2024/02/17 00:23:17;;;;;;;;;;;;;;;20.91;26.92;98793.75;4914344;29;1899;-81
2024/02/17 00:25:43;;;;;;;;;;;;;;;20.98;26.77;98794.44;4934170;29;1005;-81
2024/02/17 00:28:09;;;;;;;;;;;;;;;21.20;26.56;98789.34;4916112;29;1117;-79
2024/02/17 00:30:35;;;;;;;;;;;;;;;21.20;26.61;98791.38;4916902;29;1149;-80
2024/02/17 00:33:03;;;;;;;;;;;;;;;21.18;26.23;98786.13;4931532;29;1035;-81
2024/02/17 00:35:28;;;;;;;;;;;;;;;20.93;26.80;98780.75;4932994;29;1042;-80
2024/02/17 00:37:54;;;;;;;;;;;;;;;20.78;26.87;98785.81;4932279;29;876;-81
2024/02/17 00:40:20;;;;;;;;;;;;;;;21.19;26.15;98787.75;4932928;29;1461;-81
2024/02/17 00:42:46;;;;;;;;;;;;;;;21.13;26.34;98789.44;4932447;29;1980;-81
2024/02/17 00:45:11;;;;;;;;;;;;;;;20.98;26.79;98782.34;4977996;28;1079;-81
2024/02/17 00:47:37;;;;;;;;;;;;;;;20.94;26.75;98781.59;4973966;28;939;-81
2024/02/17 00:50:03;;;;;;;;;;;;;;;21.03;26.49;98784.69;4988786;28;1201;-81
2024/02/17 00:52:28;;;;;;;;;;;;;;;21.11;26.51;98786.22;4974899;28;986;-81
2024/02/17 00:54:54;;;;;;;;;;;;;;;21.03;26.69;98779.84;4973112;28;916;-80
2024/02/17 00:57:19;;;;;;;;;;;;;;;20.76;26.80;98776.91;4990647;28;936;-79
2024/02/17 00:59:45;;;;;;;;;;;;;;;20.52;27.02;98777.97;4988693;28;970;-80
2024/02/17 01:02:10;;;;;;;;;;;;;;;21.12;26.50;98782.16;5000138;28;1883;-80
2024/02/17 01:04:36;;;;;;;;;;;;;;;21.01;26.46;98787.16;5030151;28;1012;-80
2024/02/17 01:07:01;;;;;;;;;;;;;;;21.04;26.62;98787.13;5030720;28;1232;-80
2024/02/17 01:09:27;;;;;;;;;;;;;;;20.95;26.79;98783.19;5012726;28;919;-79
2024/02/17 01:11:53;;;;;;;;;;;;;;;21.01;26.47;98787.97;5030714;28;953;-80
2024/02/17 01:14:20;;;;;;;;;;;;;;;21.07;26.46;98796.78;4992423;28;1166;-81
2024/02/17 01:16:46;;;;;;;;;;;;;;;21.30;26.05;98794.13;5010542;28;1010;-81
2024/02/17 01:19:11;;;;;;;;;;;;;;;20.96;26.58;98790.44;4992711;28;904;-80
2024/02/17 01:21:37;;;;;;;;;;;;;;;20.81;26.57;98796.25;4977052;28;1894;-80
2024/02/17 01:24:03;;;;;;;;;;;;;;;20.58;27.13;98795.31;4992039;28;1001;-80
2024/02/17 01:26:28;;;;;;;;;;;;;;;20.97;26.79;98797.72;4990171;28;952;-80
2024/02/17 01:28:54;;;;;;;;;;;;;;;21.10;26.68;98801.59;4972264;28;1121;-80
2024/02/17 01:31:19;;;;;;;;;;;;;;;20.98;26.52;98793.66;4973475;28;947;-80
2024/02/17 01:33:49;;;;;;;;;;;;;;;21.09;26.49;98797.19;4988777;28;910;-80
2024/02/17 01:36:18;;;;;;;;;;;;;;;21.21;26.25;98793.78;4958797;28;1192;-80
2024/02/17 01:38:45;;;;;;;;;;;;;;;21.21;26.36;98793.78;4972328;28;963;-81
2024/02/17 01:41:11;;;;;;;;;;;;;;;20.79;26.58;98787.41;4942250;28;1887;-80
2024/02/17 01:43:37;;;;;;;;;;;;;;;20.39;27.33;98785.34;4956245;28;1018;-80
2024/02/17 01:46:02;;;;;;;;;;;;;;;20.98;26.80;98783.13;4990967;28;947;-80
2024/02/17 01:48:28;;;;;;;;;;;;;;;21.04;26.49;98781.47;4975067;28;1239;-80
2024/02/17 01:50:54;;;;;;;;;;;;;;;21.00;26.79;98785.56;5010088;28;906;-80
2024/02/17 01:53:19;;;;;;;;;;;;;;;21.20;26.39;98772.38;4968248;29;1026;-80
2024/02/17 01:55:45;;;;;;;;;;;;;;;21.31;26.01;98784.38;4938720;29;870;-80
2024/02/17 01:58:11;;;;;;;;;;;;;;;21.32;25.93;98774.66;4967332;28;1127;-80
2024/02/17 02:00:37;;;;;;;;;;;;;;;21.27;26.00;98779.97;5009037;28;961;-80
2024/02/17 02:03:03;;;;;;;;;;;;;;;21.04;26.26;98781.47;4968775;28;1883;-80
2024/02/17 02:05:28;;;;;;;;;;;;;;;20.79;26.97;98780.94;4938133;29;1339;-80
2024/02/17 02:07:54;;;;;;;;;;;;;;;20.79;26.53;98784.56;4953613;29;935;-81
2024/02/17 02:10:20;;;;;;;;;;;;;;;20.73;26.85;98783.44;4953086;28;1070;-80
2024/02/17 02:12:45;;;;;;;;;;;;;;;20.78;26.79;98782.97;4969870;28;953;-81
2024/02/17 02:15:12;;;;;;;;;;;;;;;20.54;27.39;98781.22;4953878;29;1001;-80
2024/02/17 02:17:38;;;;;;;;;;;;;;;20.65;26.91;98787.56;4937727;29;924;-80
2024/02/17 02:20:05;;;;;;;;;;;;;;;20.28;27.50;98786.25;4936337;29;1207;-80
2024/02/17 02:22:30;;;;;;;;;;;;;;;20.47;27.28;98790.56;4953647;28;1969;-80
2024/02/17 02:24:57;;;;;;;;;;;;;;;20.06;27.87;98801.78;4998354;28;1019;-80
2024/02/17 02:27:22;;;;;;;;;;;;;;;19.94;27.93;98802.25;4992497;28;1035;-80
2024/02/17 02:29:48;;;;;;;;;;;;;;;20.01;27.79;98805.84;5007314;28;1268;-80
2024/02/17 02:32:14;;;;;;;;;;;;;;;20.11;27.73;98801.34;5009496;28;935;-81
2024/02/17 02:34:39;;;;;;;;;;;;;;;20.21;27.38;98797.63;4974686;28;1251;-80
2024/02/17 02:37:05;;;;;;;;;;;;;;;20.10;27.78;98807.38;4976095;28;1570;-81
2024/02/17 02:39:30;;;;;;;;;;;;;;;19.47;28.51;98804.53;4976446;28;1016;-80
2024/02/17 02:41:56;;;;;;;;;;;;;;;20.36;27.33;98800.31;5029648;28;1882;-81
2024/02/17 02:44:22;;;;;;;;;;;;;;;20.77;26.64;98806.00;5027576;28;1286;-80
2024/02/17 02:46:47;;;;;;;;;;;;;;;20.69;26.80;98805.28;5029360;28;1032;-80
2024/02/17 02:49:13;;;;;;;;;;;;;;;20.70;26.70;98800.44;5027423;28;944;-81
2024/02/17 02:51:38;;;;;;;;;;;;;;;20.62;26.98;98805.34;5028993;28;802;-79
2024/02/17 02:54:04;;;;;;;;;;;;;;;20.53;27.08;98802.22;4990563;28;1119;-81
2024/02/17 02:56:29;;;;;;;;;;;;;;;20.64;26.78;98802.91;4975454;28;1141;-80
2024/02/17 02:58:55;;;;;;;;;;;;;;;20.76;26.74;98799.53;5006255;28;938;-80
2024/02/17 03:01:21;;;;;;;;;;;;;;;20.84;26.71;98810.81;4991579;28;1902;-81
2024/02/17 03:03:47;;;;;;;;;;;;;;;20.95;26.65;98795.31;4989288;28;969;-80
2024/02/17 03:06:13;;;;;;;;;;;;;;;20.96;26.60;98796.13;4991463;28;1003;-80
2024/02/17 03:08:38;;;;;;;;;;;;;;;20.75;26.74;98803.59;4989343;28;967;-80
2024/02/17 03:11:06;;;;;;;;;;;;;;;20.86;26.71;98803.50;4991713;28;895;-80
2024/02/17 03:13:33;;;;;;;;;;;;;;;20.66;27.16;98811.78;4989073;28;935;-81
2024/02/17 03:15:59;;;;;;;;;;;;;;;20.78;26.92;98802.78;4992393;28;875;-80
2024/02/17 03:18:24;;;;;;;;;;;;;;;21.02;26.28;98811.41;4988909;28;920;-80
2024/02/17 03:20:50;;;;;;;;;;;;;;;20.81;26.52;98807.56;4992255;28;943;-80
2024/02/17 03:23:15;;;;;;;;;;;;;;;20.25;27.24;98809.69;4990318;28;1915;-80
2024/02/17 03:25:41;;;;;;;;;;;;;;;20.83;26.63;98803.53;5024854;28;821;-81
2024/02/17 03:28:07;;;;;;;;;;;;;;;20.98;26.28;98816.28;5027030;28;1397;-80
2024/02/17 03:30:32;;;;;;;;;;;;;;;21.01;26.23;98804.13;5011148;28;1021;-80
2024/02/17 03:32:58;;;;;;;;;;;;;;;21.07;26.13;98805.28;5028466;28;928;-80
2024/02/17 03:35:24;;;;;;;;;;;;;;;20.85;26.60;98806.75;5029524;28;886;-80
2024/02/17 03:37:49;;;;;;;;;;;;;;;21.06;26.39;98812.16;5028941;28;1060;-80
2024/02/17 03:40:15;;;;;;;;;;;;;;;21.04;26.23;98814.63;5029267;28;894;-80
2024/02/17 03:42:41;;;;;;;;;;;;;;;21.12;26.18;98812.50;5012951;28;1906;-80
2024/02/17 03:45:06;;;;;;;;;;;;;;;20.93;26.59;98808.25;5029826;28;887;-80
2024/02/17 03:47:32;;;;;;;;;;;;;;;20.84;26.63;98810.81;5030259;28;844;-81
2024/02/17 03:49:57;;;;;;;;;;;;;;;20.27;27.26;98810.09;5026806;28;966;-80
2024/02/17 03:52:23;;;;;;;;;;;;;;;20.53;27.06;98805.06;5011373;28;1084;-80
2024/02/17 03:54:49;;;;;;;;;;;;;;;21.08;26.17;98809.69;5009501;28;982;-80
2024/02/17 03:57:16;;;;;;;;;;;;;;;21.07;26.33;98808.91;5011419;28;1132;-80
2024/02/17 03:59:42;;;;;;;;;;;;;;;20.93;26.60;98802.59;5013561;28;945;-80
2024/02/17 04:02:08;;;;;;;;;;;;;;;21.19;26.04;98803.91;5031453;28;1902;-81
2024/02/17 04:04:33;;;;;;;;;;;;;;;20.92;26.60;98812.31;5013475;28;958;-81
2024/02/17 04:06:59;;;;;;;;;;;;;;;20.93;26.21;98802.59;5030748;28;909;-80
2024/02/17 04:09:25;;;;;;;;;;;;;;;21.07;26.35;98808.09;5013515;28;1219;-80
2024/02/17 04:11:51;;;;;;;;;;;;;;;21.18;25.95;98803.13;5031176;28;1302;-80
2024/02/17 04:14:18;;;;;;;;;;;;;;;20.87;26.22;98809.94;5013443;28;1170;-80
2024/02/17 04:16:43;;;;;;;;;;;;;;;20.25;27.31;98809.69;5015303;28;917;-81
2024/02/17 04:19:09;;;;;;;;;;;;;;;21.06;26.14;98798.81;5029285;28;1003;-81
2024/02/17 04:21:35;;;;;;;;;;;;;;;20.97;26.11;98800.53;4981384;28;1961;-80
2024/02/17 04:24:00;;;;;;;;;;;;;;;20.83;26.67;98806.34;5029276;28;926;-81
2024/02/17 04:26:26;;;;;;;;;;;;;;;20.77;26.66;98806.00;4997824;28;942;-81
2024/02/17 04:28:51;;;;;;;;;;;;;;;21.14;26.23;98807.22;5029109;28;1132;-81
2024/02/17 04:31:17;;;;;;;;;;;;;;;21.00;26.16;98805.38;5015361;28;1608;-81
2024/02/17 04:33:43;;;;;;;;;;;;;;;21.00;26.16;98808.19;5028552;28;902;-80
2024/02/17 04:36:09;;;;;;;;;;;;;;;20.69;26.48;98815.81;5031006;28;1207;-80
2024/02/17 04:38:35;;;;;;;;;;;;;;;20.59;26.84;98806.19;4995577;28;941;-80
2024/02/17 04:41:01;;;;;;;;;;;;;;;20.92;26.31;98815.16;5033506;28;965;-80
2024/02/17 04:43:27;;;;;;;;;;;;;;;21.00;26.28;98814.66;5030691;28;1918;-80
2024/02/17 04:45:52;;;;;;;;;;;;;;;21.12;26.25;98807.63;5032087;28;923;-80
2024/02/17 04:48:18;;;;;;;;;;;;;;;21.28;25.99;98810.66;5029974;28;965;-81
2024/02/17 04:50:44;;;;;;;;;;;;;;;21.18;25.97;98808.78;5032489;28;979;-80
2024/02/17 04:53:09;;;;;;;;;;;;;;;20.99;26.34;98813.06;4980279;28;948;-81
2024/02/17 04:55:35;;;;;;;;;;;;;;;21.04;25.90;98820.28;5032345;28;955;-80
2024/02/17 04:58:01;;;;;;;;;;;;;;;20.80;26.42;98814.47;5030257;28;881;-81
2024/02/17 05:00:26;;;;;;;;;;;;;;;21.07;25.93;98825.09;5008888;28;1451;-80
2024/02/17 05:02:52;;;;;;;;;;;;;;;21.15;25.79;98820.97;5011243;28;1879;-81
2024/02/17 05:05:19;;;;;;;;;;;;;;;20.99;26.01;98829.22;5010370;28;1416;-81
2024/02/17 05:07:45;;;;;;;;;;;;;;;20.91;26.29;98827.69;5011345;28;902;-80
2024/02/17 05:10:11;;;;;;;;;;;;;;;21.19;26.08;98833.03;5009958;28;1309;-80
2024/02/17 05:12:36;;;;;;;;;;;;;;;21.12;26.06;98833.09;5009963;28;1414;-78
2024/02/17 05:15:02;;;;;;;;;;;;;;;21.16;25.69;98839.53;5010463;28;936;-80
2024/02/17 05:17:28;;;;;;;;;;;;;;;21.13;25.77;98839.56;4995523;28;883;-81
2024/02/17 05:19:54;;;;;;;;;;;;;;;21.20;25.58;98839.50;5008817;28;897;-80
2024/02/17 05:22:20;;;;;;;;;;;;;;;20.48;26.70;98839.44;4989486;28;1879;-81
2024/02/17 05:24:45;;;;;;;;;;;;;;;20.39;26.78;98848.34;4972367;28;1078;-80
2024/02/17 05:27:12;;;;;;;;;;;;;;;21.08;25.95;98852.16;4939528;29;1633;-80
2024/02/17 05:29:38;;;;;;;;;;;;;;;21.14;25.73;98847.66;4951998;29;1406;-81
2024/02/17 05:32:03;;;;;;;;;;;;;;;20.94;26.36;98860.81;4950823;29;1431;-80
2024/02/17 05:34:29;;;;;;;;;;;;;;;21.10;26.08;98857.41;4960274;29;1545;-81
2024/02/17 05:36:56;;;;;;;;;;;;;;;21.09;25.98;98859.44;4951429;29;1050;-80
2024/02/17 05:39:22;;;;;;;;;;;;;;;21.24;25.70;98869.38;4933977;29;1172;-81
2024/02/17 05:41:48;;;;;;;;;;;;;;;21.25;25.73;98875.84;4951070;29;1910;-81
2024/02/17 05:44:14;;;;;;;;;;;;;;;21.12;25.96;98872.72;4933704;29;923;-81
2024/02/17 05:46:39;;;;;;;;;;;;;;;21.05;25.93;98879.28;4951460;29;893;-81
2024/02/17 05:49:05;;;;;;;;;;;;;;;20.79;26.28;98874.28;4949062;29;1435;-80
2024/02/17 05:51:30;;;;;;;;;;;;;;;20.61;26.27;98882.91;4951942;29;1054;-80
2024/02/17 05:53:56;;;;;;;;;;;;;;;20.94;26.12;98883.44;4949776;29;1129;-80
2024/02/17 05:56:22;;;;;;;;;;;;;;;20.92;26.18;98883.84;4935507;29;919;-80
2024/02/17 05:58:47;;;;;;;;;;;;;;;20.89;25.94;98892.38;4961640;28;1300;-80
2024/02/17 06:01:13;;;;;;;;;;;;;;;20.96;26.00;98895.13;4992603;28;903;-81
2024/02/17 06:03:38;;;;;;;;;;;;;;;21.10;25.71;98892.16;4989724;28;1949;-78
2024/02/17 06:06:04;;;;;;;;;;;;;;;20.97;25.94;98894.69;5009626;28;970;-81
2024/02/17 06:08:29;;;;;;;;;;;;;;;20.92;26.33;98902.84;4990099;28;892;-80
2024/02/17 06:10:55;;;;;;;;;;;;;;;21.25;25.67;98904.94;5009456;28;854;-80
2024/02/17 06:13:21;;;;;;;;;;;;;;;21.05;25.85;98906.78;4992373;28;957;-81
2024/02/17 06:15:47;;;;;;;;;;;;;;;20.96;26.04;98909.28;5031148;28;971;-80
2024/02/17 06:21:19;;;;;;;;;;;;;;;20.78;26.41;98915.91;5010316;28;965;-80
2024/02/17 06:23:45;;;;;;;;;;;;;;;21.09;25.80;98913.19;5009534;28;1902;-80
2024/02/17 06:26:31;;;;;;;;;;;;;;;20.82;26.16;98915.88;5010766;28;944;-80
2024/02/17 06:28:57;;;;;;;;;;;;;;;21.07;25.95;98915.63;5009193;28;1169;-80
2024/02/17 06:31:23;;;;;;;;;;;;;;;20.97;25.94;98919.38;4993400;28;1129;-80
2024/02/17 06:33:49;;;;;;;;;;;;;;;21.12;25.87;98918.00;5009630;28;1330;-81
2024/02/17 06:36:14;;;;;;;;;;;;;;;21.07;25.82;98921.28;5030643;28;908;-80
2024/02/17 06:38:40;;;;;;;;;;;;;;;20.99;25.97;98925.44;5027739;28;920;-80
2024/02/17 06:41:06;;;;;;;;;;;;;;;20.61;26.52;98933.00;5013615;28;1320;-81
2024/02/17 06:43:32;;;;;;;;;;;;;;;20.62;26.24;98924.09;4990099;28;1906;-80
2024/02/17 06:46:01;;;;;;;;;;;;;;;20.41;26.50;98936.34;4993070;28;984;-81
2024/02/17 06:48:26;;;;;;;;;;;;;;;20.83;26.41;98933.63;4989515;28;1665;-79
2024/02/17 06:50:52;;;;;;;;;;;;;;;20.93;26.03;98936.38;4989822;28;950;-80
2024/02/17 06:53:18;;;;;;;;;;;;;;;21.17;25.59;98928.06;4970737;28;977;-81
2024/02/17 06:55:44;;;;;;;;;;;;;;;21.12;25.77;98934.97;4989306;28;875;-80
2024/02/17 06:58:09;;;;;;;;;;;;;;;21.03;26.03;98941.13;4987028;28;896;-81
2024/02/17 07:00:36;;;;;;;;;;;;;;;21.06;26.12;98939.50;4988012;28;968;-81
2024/02/17 07:03:04;;;;;;;;;;;;;;;21.14;25.63;98928.91;4988135;28;1914;-80
2024/02/17 07:05:29;;;;;;;;;;;;;;;20.58;26.39;98940.31;4957200;28;1294;-81
2024/02/17 07:07:55;;;;;;;;;;;;;;;20.25;26.78;98941.72;4988143;28;915;-80
2024/02/17 07:10:20;;;;;;;;;;;;;;;20.80;26.51;98941.75;4933856;29;971;-80
2024/02/17 07:12:46;;;;;;;;;;;;;;;20.91;26.35;98940.84;4933305;29;1170;-80
2024/02/17 07:15:11;;;;;;;;;;;;;;;21.06;26.13;98931.00;4963177;28;1042;-80
2024/02/17 07:17:37;;;;;;;;;;;;;;;21.06;25.89;98939.50;4988058;28;935;-81
2024/02/17 07:20:04;;;;;;;;;;;;;;;20.99;26.17;98937.53;4987301;28;948;-80
2024/02/17 07:22:30;;;;;;;;;;;;;;;20.99;25.91;98942.41;4989274;28;1964;-80
2024/02/17 07:24:55;;;;;;;;;;;;;;;20.94;25.96;98940.03;4970503;28;1123;-80
2024/02/17 07:27:21;;;;;;;;;;;;;;;20.91;26.35;98941.66;4972153;28;933;-81
2024/02/17 07:29:47;;;;;;;;;;;;;;;21.03;25.90;98948.81;4987336;28;1181;-80
2024/02/17 07:32:14;;;;;;;;;;;;;;;21.03;25.93;98955.28;4958993;28;902;-81
2024/02/17 07:34:41;;;;;;;;;;;;;;;20.25;26.84;98956.63;4991217;28;980;-81
2024/02/17 07:37:07;;;;;;;;;;;;;;;20.28;26.86;98958.66;4962528;28;1307;-80
2024/02/17 07:39:35;;;;;;;;;;;;;;;20.92;26.12;98959.41;5003065;28;1421;-81
2024/02/17 07:42:01;;;;;;;;;;;;;;;20.92;26.05;98953.75;4977108;28;1949;-81
2024/02/17 07:44:27;;;;;;;;;;;;;;;20.87;26.39;98957.84;5011496;28;1096;-81
2024/02/17 07:46:53;;;;;;;;;;;;;;;20.87;26.41;98959.88;5013368;28;971;-81
2024/02/17 07:49:18;;;;;;;;;;;;;;;21.01;26.05;98973.91;5010723;28;920;-80
2024/02/17 07:51:44;;;;;;;;;;;;;;;21.15;25.73;98967.31;5012538;28;950;-80
2024/02/17 07:54:09;;;;;;;;;;;;;;;21.12;25.96;98968.16;4996385;28;1445;-81
2024/02/17 07:56:35;;;;;;;;;;;;;;;20.56;26.47;98965.34;5020333;28;1530;-80
2024/02/17 07:59:01;;;;;;;;;;;;;;;20.48;26.68;98963.81;5030985;28;926;-81
2024/02/17 08:01:26;;;;;;;;;;;;;;;20.83;26.23;98967.56;5016141;28;1878;-80
2024/02/17 08:03:52;;;;;;;;;;;;;;;20.93;26.28;98972.34;5031271;28;1092;-80
2024/02/17 08:06:19;;;;;;;;;;;;;;;20.85;26.28;98970.81;5032144;28;917;-80
2024/02/17 08:08:45;;;;;;;;;;;;;;;20.85;26.40;98973.63;5031321;28;934;-80
2024/02/17 08:11:11;;;;;;;;;;;;;;;20.94;26.12;98976.81;5032084;28;1449;-81
2024/02/17 08:13:38;;;;;;;;;;;;;;;20.75;26.53;98975.31;5030473;28;877;-80
2024/02/17 08:16:04;;;;;;;;;;;;;;;21.07;26.12;98975.06;5032422;28;970;-81
2024/02/17 08:18:29;;;;;;;;;;;;;;;21.14;25.71;98969.34;5029586;28;1018;-81
2024/02/17 08:20:57;;;;;;;;;;;;;;;20.58;26.38;98971.41;5032883;28;783;-80
2024/02/17 08:23:26;;;;;;;;;;;;;;;20.44;26.75;98979.97;4990702;28;1973;-81
2024/02/17 08:25:52;;;;;;;;;;;;;;;21.00;26.07;98984.41;4960603;28;1225;-80
2024/02/17 08:28:18;;;;;;;;;;;;;;;20.94;26.21;98974.78;4973111;28;1059;-80
2024/02/17 08:30:43;;;;;;;;;;;;;;;20.91;26.26;98977.63;4975613;28;959;-80
2024/02/17 08:33:09;;;;;;;;;;;;;;;21.04;26.04;98973.06;4973298;28;1060;-80
2024/02/17 08:35:35;;;;;;;;;;;;;;;21.22;25.89;98979.34;4991593;28;923;-80
2024/02/17 08:38:01;;;;;;;;;;;;;;;21.18;25.76;98972.94;4993310;28;1203;-81
2024/02/17 08:40:27;;;;;;;;;;;;;;;20.68;26.41;98976.19;4994102;28;1768;-80
2024/02/17 08:42:52;;;;;;;;;;;;;;;20.88;26.05;98978.44;4993508;28;1895;-81
2024/02/17 08:45:18;;;;;;;;;;;;;;;20.29;26.83;98980.03;4999992;28;1770;-81
2024/02/17 08:47:43;;;;;;;;;;;;;;;21.00;26.08;98983.63;4974611;28;944;-80
2024/02/17 08:50:09;;;;;;;;;;;;;;;20.89;26.42;98978.06;4958575;29;1607;-81
2024/02/17 08:52:35;;;;;;;;;;;;;;;20.94;26.25;98979.63;4955184;29;988;-80
2024/02/17 08:55:00;;;;;;;;;;;;;;;20.96;26.09;98991.31;4969688;29;968;-81
2024/02/17 08:57:26;;;;;;;;;;;;;;;20.92;26.46;98987.72;4981302;28;1580;-81
2024/02/17 08:59:52;;;;;;;;;;;;;;;21.05;25.94;98989.63;4989515;28;1034;-81
2024/02/17 09:02:18;;;;;;;;;;;;;;;21.11;26.19;99001.31;4991521;28;1911;-80
2024/02/17 09:04:45;;;;;;;;;;;;;;;21.23;25.60;99003.59;4989160;28;1053;-80
2024/02/17 09:07:10;;;;;;;;;;;;;;;21.00;26.16;98995.72;4932874;29;1173;-81
2024/02/17 09:09:36;;;;;;;;;;;;;;;20.84;25.90;99000.31;4916373;29;1197;-80
2024/02/17 09:12:02;;;;;;;;;;;;;;;20.05;27.43;98997.91;4934047;29;959;-80
2024/02/17 09:14:33;;;;;;;;;;;;;;;20.89;26.50;98994.22;4898554;29;1255;-81
2024/02/17 09:16:58;;;;;;;;;;;;;;;20.96;26.37;98999.81;4918007;29;846;-81
2024/02/17 09:19:24;;;;;;;;;;;;;;;21.18;25.91;98998.41;4915575;29;1031;-81
2024/02/17 09:21:51;;;;;;;;;;;;;;;21.04;25.93;98995.72;4947370;29;1915;-80
2024/02/17 09:24:19;;;;;;;;;;;;;;;21.20;25.83;98993.13;4935092;29;968;-81
2024/02/17 09:26:47;;;;;;;;;;;;;;;21.08;26.02;98990.81;4952498;29;1146;-81
2024/02/17 09:29:13;;;;;;;;;;;;;;;21.07;26.14;98989.19;4911128;29;1440;-81
2024/02/17 09:31:39;;;;;;;;;;;;;;;20.98;26.41;98997.34;4925369;29;1793;-80
2024/02/17 09:34:05;;;;;;;;;;;;;;;21.05;26.01;98992.47;4931114;29;1686;-81
2024/02/17 09:36:30;;;;;;;;;;;;;;;21.22;25.92;98990.69;4932886;29;955;-81
2024/02/17 09:38:56;;;;;;;;;;;;;;;20.48;26.50;98992.09;4963127;28;1070;-80
2024/02/17 09:41:22;;;;;;;;;;;;;;;20.75;26.18;98987.44;4989757;28;983;-80
2024/02/17 09:43:49;;;;;;;;;;;;;;;20.81;26.28;98982.94;4972973;28;1956;-80
2024/02/17 09:46:14;;;;;;;;;;;;;;;21.05;25.99;98986.81;4974892;28;1685;-81
2024/02/17 09:48:40;;;;;;;;;;;;;;;20.96;26.02;98982.84;4972020;28;924;-81
2024/02/17 09:51:06;;;;;;;;;;;;;;;20.96;26.04;98988.50;4963374;28;963;-81
2024/02/17 09:53:32;;;;;;;;;;;;;;;21.07;26.28;98986.38;4968835;28;924;-81
2024/02/17 09:55:59;;;;;;;;;;;;;;;21.00;26.24;98983.63;4954964;29;1102;-79
2024/02/17 09:58:24;;;;;;;;;;;;;;;21.17;26.17;98982.63;4952715;29;898;-81
2024/02/17 10:00:50;;;;;;;;;;;;;;;21.17;25.81;98971.31;4950901;29;1192;-81
2024/02/17 10:03:17;;;;;;;;;;;;;;;20.50;26.61;98973.47;4960460;28;1887;-81
2024/02/17 10:05:43;;;;;;;;;;;;;;;19.95;27.49;98974.19;4973106;28;1398;-80
2024/02/17 10:08:09;;;;;;;;;;;;;;;20.75;26.43;98966.84;4937990;29;1022;-81
2024/02/17 10:10:35;;;;;;;;;;;;;;;21.01;26.01;98969.03;4970129;29;953;-80
2024/02/17 10:13:02;;;;;;;;;;;;;;;21.07;26.02;98967.38;4921108;28;963;-81
2024/02/17 10:15:27;;;;;;;;;;;;;;;21.12;25.87;98963.28;4953832;29;1053;-80
2024/02/17 10:17:54;;;;;;;;;;;;;;;21.06;26.17;98971.44;4937700;29;939;-81
2024/02/17 10:20:19;;;;;;;;;;;;;;;21.23;25.89;98955.50;4963209;28;1454;-81
2024/02/17 10:22:45;;;;;;;;;;;;;;;21.06;26.02;98959.31;4972754;28;2065;-80
2024/02/17 10:25:11;;;;;;;;;;;;;;;20.01;27.37;98958.41;4955834;28;1046;-79
2024/02/17 10:27:37;;;;;;;;;;;;;;;20.91;26.44;98958.63;4972482;28;1251;-80
2024/02/17 10:30:22;;;;;;;;;;;;;;;21.01;26.03;98968.25;4971751;28;923;-81
2024/02/17 10:32:48;;;;;;;;;;;;;;;21.04;26.01;98962.56;4930491;29;964;-81
2024/02/17 10:35:15;;;;;;;;;;;;;;;20.96;26.26;98966.66;4931385;29;918;-80
2024/02/17 10:37:41;;;;;;;;;;;;;;;21.00;26.38;98973.09;4912495;29;1568;-80
2024/02/17 10:40:10;;;;;;;;;;;;;;;20.92;26.28;98967.91;4921129;29;1733;-81
2024/02/17 10:42:36;;;;;;;;;;;;;;;21.06;26.07;98953.66;4896356;29;1950;-81
2024/02/17 10:45:02;;;;;;;;;;;;;;;21.16;25.89;98947.06;4911480;29;968;-81
2024/02/17 10:47:36;;;;;;;;;;;;;;;21.05;26.02;98963.38;4913557;29;1059;-80
2024/02/17 10:50:19;;;;;;;;;;;;;;;20.69;26.46;98962.84;4911176;29;1026;-81
2024/02/17 10:52:45;;;;;;;;;;;;;;;20.61;26.57;98950.78;4911705;29;979;-81
2024/02/17 10:55:12;;;;;;;;;;;;;;;20.96;26.38;98960.19;4911213;29;792;-80
2024/02/17 10:57:56;;;;;;;;;;;;;;;20.91;26.11;98957.81;4908193;29;1687;-81
2024/02/17 11:00:22;;;;;;;;;;;;;;;20.95;26.36;98958.59;4877790;29;1123;-81
2024/02/17 11:02:49;;;;;;;;;;;;;;;21.24;26.00;98948.63;4909011;29;1887;-81
2024/02/17 11:05:18;;;;;;;;;;;;;;;21.05;26.06;98952.03;4909034;29;1288;-80
2024/02/17 11:07:44;;;;;;;;;;;;;;;21.09;26.28;98958.47;4892590;29;1144;-80
2024/02/17 11:10:10;;;;;;;;;;;;;;;20.75;26.32;98956.34;4903471;29;1351;-79
2024/02/17 11:12:36;;;;;;;;;;;;;;;20.64;26.33;98955.63;4969665;28;958;-81
2024/02/17 11:15:08;;;;;;;;;;;;;;;20.66;26.49;98958.81;4913773;29;1009;-81
2024/02/17 11:17:36;;;;;;;;;;;;;;;21.06;25.99;98964.97;4915546;29;1096;-80
2024/02/17 11:20:06;;;;;;;;;;;;;;;21.04;25.99;98962.56;4914520;29;915;-81
2024/02/17 11:22:31;;;;;;;;;;;;;;;20.95;26.37;98958.59;4900246;29;1978;-80
2024/02/17 11:24:57;;;;;;;;;;;;;;;20.93;26.46;98955.38;4929300;29;1407;-81
2024/02/17 11:27:24;;;;;;;;;;;;;;;20.92;26.45;98959.41;4934794;29;956;-80
2024/02/17 11:29:50;;;;;;;;;;;;;;;21.05;26.39;98963.38;4916862;29;1112;-81
2024/02/17 11:32:16;;;;;;;;;;;;;;;21.11;26.03;98955.22;4934858;29;1077;-81
2024/02/17 11:34:42;;;;;;;;;;;;;;;21.21;25.98;98955.13;4933353;29;953;-80
2024/02/17 11:37:07;;;;;;;;;;;;;;;21.13;26.16;98959.22;4934430;29;1168;-82
2024/02/17 11:39:33;;;;;;;;;;;;;;;20.47;26.75;98954.53;4964999;28;1336;-81
2024/02/17 11:41:58;;;;;;;;;;;;;;;20.64;26.57;98960.47;4965280;28;1974;-81
2024/02/17 11:44:24;;;;;;;;;;;;;;;21.00;26.14;98953.28;4971260;28;964;-81
2024/02/17 11:46:49;;;;;;;;;;;;;;;21.03;26.24;98954.47;5020779;28;950;-80
2024/02/17 11:49:26;;;;;;;;;;;;;;;20.93;26.58;98955.38;4990561;28;1176;-81
2024/02/17 11:51:52;;;;;;;;;;;;;;;21.01;26.46;98956.91;4992326;28;924;-81
2024/02/17 11:54:18;;;;;;;;;;;;;;;20.72;26.88;98951.50;5007356;28;952;-80
2024/02/17 11:56:43;;;;;;;;;;;;;;;21.11;26.32;98963.72;4992227;28;1390;-81
2024/02/17 11:59:10;;;;;;;;;;;;;;;21.12;26.27;98963.28;4990767;28;1442;-81
2024/02/17 12:01:36;;;;;;;;;;;;;;;20.69;26.88;98951.53;4992647;28;1979;-81
2024/02/17 12:04:03;;;;;;;;;;;;;;;20.42;26.75;98954.13;4990193;28;965;-80
2024/02/17 12:06:28;;;;;;;;;;;;;;;20.72;26.73;98957.16;4991443;28;1047;-81
2024/02/17 12:08:54;;;;;;;;;;;;;;;20.97;26.39;98956.16;5006091;28;1545;-81
2024/02/17 12:11:20;;;;;;;;;;;;;;;20.79;26.79;98957.13;4975944;28;993;-81
2024/02/17 12:13:46;;;;;;;;;;;;;;;21.10;26.37;98965.75;4990768;28;1075;-80
2024/02/17 12:16:12;;;;;;;;;;;;;;;21.20;26.18;98959.19;4992508;28;1271;-80
2024/02/17 12:18:38;;;;;;;;;;;;;;;21.27;25.93;98969.63;5007383;28;1043;-81
2024/02/17 12:21:07;;;;;;;;;;;;;;;21.14;26.21;98962.84;4996326;28;954;-81
2024/02/17 12:23:36;;;;;;;;;;;;;;;20.91;26.26;98957.81;4977223;28;1975;-81
2024/02/17 12:26:03;;;;;;;;;;;;;;;20.68;26.53;98967.72;4998182;28;915;-81
2024/02/17 12:28:29;;;;;;;;;;;;;;;20.56;26.94;98959.69;5010445;28;1174;-81
2024/02/17 12:30:56;;;;;;;;;;;;;;;21.05;26.41;98963.38;4960718;28;1251;-80
2024/02/17 12:33:21;;;;;;;;;;;;;;;21.09;26.12;98964.13;4990513;28;873;-81
2024/02/17 12:35:47;;;;;;;;;;;;;;;21.00;26.41;98960.97;4975855;28;1251;-80
2024/02/17 12:38:15;;;;;;;;;;;;;;;20.93;26.55;98967.47;4973709;28;1446;-80
2024/02/17 12:40:42;;;;;;;;;;;;;;;21.04;26.33;98973.06;4991691;28;1664;-81
2024/02/17 12:43:08;;;;;;;;;;;;;;;20.94;26.55;98962.66;4974461;28;1884;-81
2024/02/17 12:45:33;;;;;;;;;;;;;;;20.91;26.37;98971.97;4975106;28;1095;-80
2024/02/17 12:47:59;;;;;;;;;;;;;;;20.64;26.88;98966.94;4974301;28;1049;-81
2024/02/17 12:50:25;;;;;;;;;;;;;;;20.60;26.77;98954.84;4971321;28;1458;-81
2024/02/17 12:52:50;;;;;;;;;;;;;;;20.51;26.83;98951.66;4939270;28;1080;-81
2024/02/17 12:55:16;;;;;;;;;;;;;;;21.13;26.46;98959.22;4971636;28;892;-81
2024/02/17 12:57:42;;;;;;;;;;;;;;;20.92;26.68;98965.09;4939958;29;914;-81
2024/02/17 13:00:08;;;;;;;;;;;;;;;20.80;26.64;98960.75;4955117;29;1035;-80